createdAt,value
2023-05-14T00:01:58.528Z,17.47
2023-05-14T00:05:59.940Z,17.10
2023-05-14T00:10:01.500Z,16.30
2023-05-14T00:14:02.969Z,15.47
2023-05-14T00:18:04.507Z,15.83
2023-05-14T00:22:05.883Z,17.90
2023-05-14T00:26:07.209Z,19.00
2023-05-14T00:30:08.914Z,19.93
2023-05-14T00:34:10.281Z,16.43
2023-05-14T00:38:16.766Z,16.77
2023-05-14T00:42:18.082Z,17.20
2023-05-14T00:46:19.800Z,15.70
2023-05-14T00:50:21.593Z,16.53
2023-05-14T00:54:23.156Z,17.17
2023-05-14T00:58:25.667Z,15.43
2023-05-14T01:02:27.118Z,14.43
2023-05-14T01:06:31.319Z,14.53
2023-05-14T01:10:42.200Z,13.80
2023-05-14T01:15:05.440Z,13.87
2023-05-14T01:19:18.655Z,15.33
2023-05-14T01:23:20.160Z,15.63
2023-05-14T01:27:52.875Z,14.43
2023-05-14T01:31:57.337Z,15.07
2023-05-14T01:35:58.881Z,16.50
2023-05-14T01:40:01.090Z,15.50
2023-05-14T01:44:02.437Z,16.00
2023-05-14T01:48:05.262Z,17.80
2023-05-14T01:52:08.405Z,19.27
2023-05-14T01:56:09.740Z,22.17
2023-05-14T02:00:11.528Z,17.33
2023-05-14T02:04:12.799Z,16.60
2023-05-14T02:08:14.193Z,16.83
2023-05-14T02:12:15.645Z,17.03
2023-05-14T02:16:16.997Z,17.17
2023-05-14T02:20:18.404Z,22.57
2023-05-14T02:24:19.753Z,17.50
2023-05-14T02:28:21.204Z,21.53
2023-05-14T02:32:22.689Z,15.27
2023-05-14T02:36:24.071Z,17.70
2023-05-14T02:40:25.763Z,18.23
2023-05-14T02:44:27.270Z,17.57
2023-05-14T02:48:28.658Z,16.67
2023-05-14T02:52:30.081Z,16.10
2023-05-14T02:56:31.449Z,15.50
2023-05-14T03:00:32.788Z,15.30
2023-05-14T03:04:34.476Z,13.73
2023-05-14T03:08:35.997Z,13.97
2023-05-14T03:12:37.376Z,14.63
2023-05-14T03:16:40.100Z,15.80
2023-05-14T03:20:42.203Z,14.67
2023-05-14T03:24:43.594Z,14.83
2023-05-14T03:28:44.901Z,14.20
2023-05-14T03:32:46.472Z,15.93
2023-05-14T03:36:47.877Z,15.77
2023-05-14T03:40:49.153Z,15.23
2023-05-14T03:44:50.496Z,14.90
2023-05-14T03:48:51.821Z,13.43
2023-05-14T03:52:53.525Z,14.57
2023-05-14T03:56:54.792Z,13.90
2023-05-14T04:00:56.197Z,12.50
2023-05-14T04:04:57.602Z,13.03
2023-05-14T04:08:58.977Z,13.07
2023-05-14T04:13:00.401Z,13.13
2023-05-14T04:17:01.706Z,12.67
2023-05-14T04:21:03.080Z,12.77
2023-05-14T04:25:04.725Z,13.03
2023-05-14T04:29:06.124Z,12.27
2023-05-14T04:33:07.482Z,12.77
2023-05-14T04:37:09.020Z,12.20
2023-05-14T04:41:10.461Z,11.77
2023-05-14T04:45:13.475Z,12.00
2023-05-14T04:49:14.862Z,12.00
2023-05-14T04:53:16.239Z,12.20
2023-05-14T04:57:17.672Z,12.40
2023-05-14T05:01:19.077Z,13.57
2023-05-14T05:05:20.669Z,12.37
2023-05-14T05:09:22.080Z,12.30
2023-05-14T05:13:23.390Z,12.77
2023-05-14T05:17:25.410Z,12.43
2023-05-14T05:21:26.873Z,11.80
2023-05-14T05:25:28.220Z,12.57
2023-05-14T05:29:29.634Z,12.67
2023-05-14T05:33:32.113Z,11.50
2023-05-14T05:37:33.490Z,11.30
2023-05-14T05:41:34.786Z,11.23
2023-05-14T05:45:36.198Z,10.50
2023-05-14T05:49:37.651Z,9.57
2023-05-14T05:53:39.007Z,9.23
2023-05-14T05:57:40.412Z,10.13
2023-05-14T06:01:43.451Z,9.88
2023-05-14T06:05:45.035Z,8.55
2023-05-14T06:09:46.531Z,8.60
2023-05-14T06:13:47.868Z,7.28
2023-05-14T06:17:49.272Z,8.63
2023-05-14T06:21:50.578Z,10.90
2023-05-14T06:25:52.540Z,12.07
2023-05-14T06:29:53.849Z,11.50
2023-05-14T06:33:55.226Z,11.13
2023-05-14T06:37:56.569Z,8.70
2023-05-14T06:41:57.841Z,12.93
2023-05-14T06:45:59.152Z,12.77
2023-05-14T06:51:09.172Z,11.52
2023-05-14T06:55:10.600Z,12.93
2023-05-14T06:59:12.129Z,11.07
2023-05-14T07:03:13.573Z,11.13
2023-05-14T07:07:18.184Z,11.18
2023-05-14T07:11:19.531Z,9.18
2023-05-14T07:15:21.172Z,8.68
2023-05-14T07:19:22.581Z,8.50
2023-05-14T07:23:23.945Z,9.20
2023-05-14T07:27:25.542Z,10.20
2023-05-14T07:31:27.060Z,9.55
2023-05-14T07:35:28.528Z,10.55
2023-05-14T07:39:29.841Z,8.63
2023-05-14T07:43:31.576Z,8.88
2023-05-14T07:47:33.298Z,8.98
2023-05-14T07:51:34.764Z,7.55
2023-05-14T07:55:36.647Z,6.57
2023-05-14T07:59:38.030Z,6.50
2023-05-14T08:03:40.013Z,6.57
2023-05-14T08:07:41.468Z,7.00
2023-05-14T08:11:42.833Z,6.45
2023-05-14T08:15:44.230Z,6.85
2023-05-14T08:19:45.619Z,6.95
2023-05-14T08:23:46.941Z,5.13
2023-05-14T08:27:48.242Z,4.72
2023-05-14T08:31:49.845Z,4.80
2023-05-14T08:35:54.540Z,4.60
2023-05-14T08:39:56.171Z,4.30
2023-05-14T08:44:12.223Z,3.10
2023-05-14T08:48:16.765Z,4.18
2023-05-14T08:52:20.148Z,3.10
2023-05-14T08:56:22.698Z,3.13
2023-05-14T09:00:24.980Z,2.75
2023-05-14T09:04:27.913Z,2.38
2023-05-14T09:08:29.456Z,3.42
2023-05-14T09:12:31.259Z,2.90
2023-05-14T09:16:32.889Z,3.08
2023-05-14T09:20:34.454Z,2.63
2023-05-14T09:24:36.092Z,2.80
2023-05-14T09:28:43.936Z,2.22
2023-05-14T09:32:46.090Z,2.80
2023-05-14T09:36:47.471Z,2.92
2023-05-14T09:40:48.755Z,2.95
2023-05-14T09:44:53.498Z,3.25
2023-05-14T09:48:55.959Z,3.80
2023-05-14T09:52:58.808Z,4.43
2023-05-14T09:57:00.349Z,4.05
2023-05-14T10:01:02.608Z,3.58
2023-05-14T10:05:06.390Z,3.90
2023-05-14T10:09:13.602Z,4.10
2023-05-14T10:13:22.263Z,4.70
2023-05-14T10:17:30.658Z,4.45
2023-05-14T10:21:36.452Z,4.78
2023-05-14T10:25:38.176Z,5.82
2023-05-14T10:29:39.564Z,5.97
2023-05-14T10:33:50.191Z,5.90
2023-05-14T10:37:51.808Z,6.22
2023-05-14T10:41:53.424Z,6.10
2023-05-14T10:45:55.782Z,5.47
2023-05-14T10:50:03.383Z,5.07
2023-05-14T10:54:08.204Z,5.30
2023-05-14T10:58:10.908Z,5.97
2023-05-14T11:02:32.955Z,5.93
2023-05-14T11:06:35.637Z,6.68
2023-05-14T11:10:38.850Z,6.30
2023-05-14T11:14:41.439Z,7.45
2023-05-14T11:18:42.781Z,7.70
2023-05-14T11:22:45.660Z,7.05
2023-05-14T11:26:47.088Z,7.28
2023-05-14T11:30:49.674Z,6.43
2023-05-14T11:34:51.372Z,5.75
2023-05-14T11:38:52.965Z,6.00
2023-05-14T11:42:54.495Z,6.55
2023-05-14T11:46:57.088Z,7.85
2023-05-14T11:50:58.449Z,6.22
2023-05-14T11:54:59.782Z,6.10
2023-05-14T11:59:01.199Z,6.30
2023-05-14T12:03:02.720Z,6.53
2023-05-14T12:07:12.551Z,6.28
2023-05-14T12:11:13.914Z,6.43
2023-05-14T12:15:16.885Z,5.72
2023-05-14T12:19:21.230Z,6.90
2023-05-14T12:23:33.198Z,6.65
2023-05-14T12:27:37.279Z,5.88
2023-05-14T12:31:45.678Z,5.35
2023-05-14T12:35:47.119Z,5.70
2023-05-14T12:39:48.540Z,5.47
2023-05-14T12:43:49.903Z,4.30
2023-05-14T12:47:51.277Z,3.00
2023-05-14T12:52:03.186Z,3.00
2023-05-14T12:56:14.577Z,2.88
2023-05-14T13:00:16.210Z,3.05
2023-05-14T13:04:17.754Z,2.40
2023-05-14T13:08:21.423Z,2.30
2023-05-14T13:12:23.696Z,2.22
2023-05-14T13:16:27.838Z,2.13
2023-05-14T13:20:30.983Z,2.63
2023-05-14T13:24:32.293Z,2.35
2023-05-14T13:28:33.867Z,2.63
2023-05-14T13:32:35.481Z,2.45
2023-05-14T13:36:39.561Z,2.60
2023-05-14T13:40:40.914Z,2.55
2023-05-14T13:44:42.238Z,2.40
2023-05-14T13:48:43.641Z,2.60
2023-05-14T13:52:44.975Z,2.45
2023-05-14T13:56:46.301Z,2.40
2023-05-14T14:00:47.596Z,2.45
2023-05-14T14:04:49.427Z,2.72
2023-05-14T14:08:50.935Z,2.55
2023-05-14T14:12:52.669Z,2.80
2023-05-14T14:16:54.045Z,2.50
2023-05-14T14:20:55.488Z,2.63
2023-05-14T14:24:56.851Z,2.10
2023-05-14T14:28:58.619Z,2.45
2023-05-14T14:33:01.260Z,2.22
2023-05-14T14:37:02.857Z,3.10
2023-05-14T14:41:04.342Z,2.13
2023-05-14T14:45:06.479Z,2.25
2023-05-14T14:49:07.852Z,2.65
2023-05-14T14:53:09.450Z,2.40
2023-05-14T14:57:10.783Z,2.30
2023-05-14T15:01:12.219Z,2.40
2023-05-14T15:05:13.582Z,2.58
2023-05-14T15:09:14.942Z,1.98
2023-05-14T15:13:16.290Z,2.40
2023-05-14T15:17:17.687Z,2.30
2023-05-14T15:21:19.106Z,2.67
2023-05-14T15:25:21.205Z,2.17
2023-05-14T15:29:22.699Z,2.80
2023-05-14T15:33:24.021Z,2.22
2023-05-14T15:37:26.645Z,2.25
2023-05-14T15:41:28.744Z,2.20
2023-05-14T15:45:30.250Z,2.80
2023-05-14T15:49:31.641Z,2.15
2023-05-14T15:53:33.320Z,2.10
2023-05-14T15:57:34.943Z,2.22
2023-05-14T16:01:36.324Z,2.08
2023-05-14T16:05:37.793Z,2.35
2023-05-14T16:09:39.414Z,2.53
2023-05-14T16:13:41.598Z,2.58
2023-05-14T16:17:43.130Z,2.72
2023-05-14T16:21:44.796Z,2.38
2023-05-14T16:25:46.294Z,2.13
2023-05-14T16:29:47.981Z,2.10
2023-05-14T16:33:49.362Z,2.17
2023-05-14T16:37:50.845Z,1.80
2023-05-14T16:41:52.197Z,2.00
2023-05-14T16:45:53.624Z,2.08
2023-05-14T16:49:55.213Z,2.40
2023-05-14T16:53:56.637Z,2.40
2023-05-14T16:57:57.979Z,2.00
2023-05-14T17:01:59.449Z,1.90
2023-05-14T17:06:01.010Z,1.80
2023-05-14T17:10:02.429Z,1.75
2023-05-14T17:14:03.984Z,1.83
2023-05-14T17:18:05.584Z,2.00
2023-05-14T17:22:07.226Z,1.80
2023-05-14T17:26:08.788Z,2.20
2023-05-14T17:30:10.668Z,2.03
2023-05-14T17:34:11.981Z,1.98
2023-05-14T17:38:13.650Z,2.00
2023-05-14T17:42:15.158Z,2.00
2023-05-14T17:46:16.621Z,2.33
2023-05-14T17:50:18.849Z,2.50
2023-05-14T17:54:20.354Z,2.03
2023-05-14T17:58:21.717Z,2.15
2023-05-14T18:02:23.093Z,2.03
2023-05-14T18:06:24.634Z,2.10
2023-05-14T18:10:26.416Z,1.98
2023-05-14T18:14:27.730Z,1.98
2023-05-14T18:18:29.187Z,1.80
2023-05-14T18:22:30.612Z,2.22
2023-05-14T18:26:34.192Z,1.50
2023-05-14T18:30:35.887Z,1.80
2023-05-14T18:34:37.236Z,1.75
2023-05-14T18:38:38.839Z,2.33
2023-05-14T18:42:48.500Z,1.90
2023-05-14T18:46:50.231Z,2.22
2023-05-14T18:50:51.848Z,2.00
2023-05-14T18:54:56.909Z,2.25
2023-05-14T18:58:58.225Z,2.40
2023-05-14T19:02:59.614Z,2.47
2023-05-14T19:07:01.042Z,2.22
2023-05-14T19:11:02.416Z,2.42
2023-05-14T19:15:04.497Z,1.88
2023-05-14T19:19:05.867Z,2.17
2023-05-14T19:23:07.435Z,1.90
2023-05-14T19:27:09.094Z,2.50
2023-05-14T19:31:10.926Z,2.65
2023-05-14T19:35:12.421Z,2.50
2023-05-14T19:39:13.808Z,2.80
2023-05-14T19:43:15.183Z,2.53
2023-05-14T19:47:18.242Z,2.50
2023-05-14T19:51:19.737Z,2.40
2023-05-14T19:55:21.081Z,2.20
2023-05-14T19:59:22.410Z,2.40
2023-05-14T20:03:27.000Z,2.40
2023-05-14T20:07:29.383Z,2.90
2023-05-14T20:11:30.793Z,2.95
2023-05-14T20:15:32.195Z,2.03
2023-05-14T20:19:33.751Z,1.77
2023-05-14T20:23:35.163Z,2.08
2023-05-14T20:27:36.689Z,1.65
2023-05-14T20:31:38.023Z,1.63
2023-05-14T20:35:41.425Z,1.90
2023-05-14T20:39:44.118Z,1.65
2023-05-14T20:43:45.434Z,1.90
2023-05-14T20:47:46.805Z,2.22
2023-05-14T20:51:48.247Z,1.90
2023-05-14T20:55:49.679Z,2.20
2023-05-14T20:59:51.028Z,2.05
2023-05-14T21:03:52.476Z,2.50
2023-05-14T21:07:53.963Z,2.40
2023-05-14T21:11:55.413Z,2.20
2023-05-14T21:15:56.868Z,1.90
2023-05-14T21:19:58.294Z,2.03
2023-05-14T21:23:59.631Z,1.90
2023-05-14T21:28:00.887Z,2.10
2023-05-14T21:32:02.321Z,1.92
2023-05-14T21:36:04.097Z,2.03
2023-05-14T21:40:09.219Z,2.08
2023-05-14T21:44:10.483Z,2.28
2023-05-14T21:48:11.964Z,2.38
2023-05-14T21:52:13.454Z,2.90
2023-05-14T21:56:15.310Z,2.00
2023-05-14T22:00:23.021Z,2.55
2023-05-14T22:04:24.301Z,2.30
2023-05-14T22:08:27.101Z,2.10
2023-05-14T22:12:28.567Z,2.53
2023-05-14T22:16:29.934Z,2.30
2023-05-14T22:20:31.386Z,2.20
2023-05-14T22:24:32.679Z,2.00
2023-05-14T22:28:34.061Z,2.30
2023-05-14T22:32:35.532Z,2.10
2023-05-14T22:36:37.064Z,2.30
2023-05-14T22:40:38.421Z,2.20
2023-05-14T22:44:39.775Z,2.25
2023-05-14T22:48:41.146Z,2.67
2023-05-14T22:52:42.486Z,2.40
2023-05-14T22:56:43.839Z,2.72
2023-05-14T23:00:45.239Z,3.03
2023-05-14T23:04:46.661Z,2.63
2023-05-14T23:08:48.184Z,3.30
2023-05-14T23:12:49.511Z,3.10
2023-05-14T23:16:50.953Z,3.92
2023-05-14T23:20:52.347Z,4.30
2023-05-14T23:24:53.721Z,4.18
2023-05-14T23:28:55.183Z,5.43
2023-05-14T23:32:56.620Z,4.93
2023-05-14T23:36:57.968Z,5.57
2023-05-14T23:40:59.324Z,6.17
2023-05-14T23:45:00.649Z,6.20
2023-05-14T23:49:02.028Z,6.30
2023-05-14T23:53:03.824Z,6.77
2023-05-14T23:57:05.480Z,6.90
